createdAt,value
2023-02-04T00:01:53.809Z,52.24
2023-02-04T00:06:55.328Z,51.48
2023-02-04T00:11:56.843Z,51.63
2023-02-04T00:16:58.370Z,52.17
2023-02-04T00:21:59.888Z,51.60
2023-02-04T00:27:02.102Z,52.23
2023-02-04T00:32:03.882Z,52.18
2023-02-04T00:37:05.510Z,53.17
2023-02-04T00:42:07.550Z,52.97
2023-02-04T00:47:10.722Z,53.99
2023-02-04T00:52:12.346Z,53.87
2023-02-04T00:57:14.422Z,54.13
2023-02-04T01:02:17.684Z,53.53
2023-02-04T01:07:19.988Z,52.94
2023-02-04T01:12:21.606Z,53.60
2023-02-04T01:17:23.504Z,53.54
2023-02-04T01:22:25.157Z,53.65
2023-02-04T01:27:27.542Z,53.59
2023-02-04T01:32:29.176Z,53.06
2023-02-04T01:37:30.820Z,52.14
2023-02-04T01:42:33.642Z,53.12
2023-02-04T01:47:36.878Z,53.15
2023-02-04T01:52:41.993Z,53.75
2023-02-04T01:57:44.073Z,53.59
2023-02-04T02:02:49.866Z,53.83
2023-02-04T02:07:55.405Z,54.32
2023-02-04T02:12:57.617Z,53.05
2023-02-04T02:17:59.204Z,53.38
2023-02-04T02:23:06.733Z,53.30
2023-02-04T02:28:13.519Z,54.00
2023-02-04T02:33:17.953Z,54.13
2023-02-04T02:38:19.994Z,53.23
2023-02-04T02:43:23.783Z,52.10
2023-02-04T02:48:28.089Z,52.74
2023-02-04T02:53:31.901Z,51.80
2023-02-04T02:58:35.606Z,53.21
2023-02-04T03:03:45.386Z,53.95
2023-02-04T03:08:51.433Z,53.20
2023-02-04T03:13:53.959Z,53.35
2023-02-04T03:18:55.994Z,53.98
2023-02-04T03:23:57.766Z,53.37
2023-02-04T03:28:59.912Z,53.00
2023-02-04T03:34:01.746Z,52.81
2023-02-04T03:39:04.107Z,51.89
2023-02-04T03:44:05.766Z,51.87
2023-02-04T03:49:07.412Z,52.10
2023-02-04T03:54:08.998Z,52.73
2023-02-04T03:59:10.524Z,52.20
2023-02-04T04:04:12.404Z,52.13
2023-02-04T04:09:14.000Z,51.87
2023-02-04T04:14:15.644Z,50.77
2023-02-04T04:19:17.323Z,51.14
2023-02-04T04:24:18.852Z,52.05
2023-02-04T04:29:20.436Z,51.80
2023-02-04T04:34:22.056Z,51.97
2023-02-04T04:39:23.627Z,52.08
2023-02-04T04:44:25.199Z,51.89
2023-02-04T04:49:26.765Z,52.46
2023-02-04T04:54:28.311Z,53.27
2023-02-04T04:59:29.895Z,52.87
2023-02-04T05:04:31.539Z,52.32
2023-02-04T05:09:33.070Z,52.79
2023-02-04T05:14:34.541Z,52.81
2023-02-04T05:19:36.122Z,52.64
2023-02-04T05:24:37.672Z,52.65
2023-02-04T05:29:39.188Z,53.00
2023-02-04T05:34:40.844Z,53.04
2023-02-04T05:39:42.385Z,53.03
2023-02-04T05:44:44.063Z,52.38
2023-02-04T05:49:46.008Z,52.66
2023-02-04T05:54:47.968Z,53.42
2023-02-04T05:59:49.540Z,53.64
2023-02-04T06:04:51.674Z,54.16
2023-02-04T06:09:53.166Z,54.34
2023-02-04T06:14:54.623Z,54.25
2023-02-04T06:19:56.082Z,54.29
2023-02-04T06:24:57.548Z,54.08
2023-02-04T06:29:58.985Z,53.41
2023-02-04T06:35:00.475Z,53.70
2023-02-04T06:40:02.353Z,53.80
2023-02-04T06:45:05.033Z,53.93
2023-02-04T06:50:06.867Z,53.64
2023-02-04T06:55:09.055Z,54.29
2023-02-04T07:00:12.450Z,55.44
2023-02-04T07:05:13.964Z,55.06
2023-02-04T07:10:16.908Z,55.05
2023-02-04T07:15:18.460Z,55.32
2023-02-04T07:20:19.994Z,55.14
2023-02-04T07:25:21.455Z,55.35
2023-02-04T07:30:22.883Z,56.54
2023-02-04T07:35:24.346Z,57.12
2023-02-04T07:40:25.837Z,58.33
2023-02-04T07:45:28.110Z,57.58
2023-02-04T07:50:29.659Z,59.15
2023-02-04T07:55:31.259Z,60.22
2023-02-04T08:00:32.992Z,60.16
2023-02-04T08:05:34.715Z,60.54
2023-02-04T08:10:36.172Z,60.53
2023-02-04T08:15:37.735Z,60.62
2023-02-04T08:20:39.175Z,60.47
2023-02-04T08:25:40.669Z,59.97
2023-02-04T08:30:42.213Z,60.12
2023-02-04T08:35:43.783Z,59.85
2023-02-04T08:40:45.274Z,59.81
2023-02-04T08:45:46.703Z,60.67
2023-02-04T08:50:48.223Z,59.73
2023-02-04T08:55:49.863Z,59.67
2023-02-04T09:00:51.451Z,59.60
2023-02-04T09:05:52.984Z,59.03
2023-02-04T09:10:54.483Z,58.72
2023-02-04T09:15:56.108Z,58.33
2023-02-04T09:20:57.530Z,59.02
2023-02-04T09:25:59.035Z,59.11
2023-02-04T09:31:00.615Z,58.55
2023-02-04T09:36:02.700Z,58.50
2023-02-04T09:41:07.510Z,57.84
2023-02-04T09:46:23.709Z,57.89
2023-02-04T09:51:30.002Z,57.65
2023-02-04T09:56:31.691Z,58.49
2023-02-04T10:01:33.202Z,58.24
2023-02-04T10:06:34.730Z,58.16
2023-02-04T10:11:38.873Z,57.87
2023-02-04T10:16:42.099Z,58.29
2023-02-04T10:21:47.550Z,58.56
2023-02-04T10:26:49.056Z,58.30
2023-02-04T10:31:51.415Z,58.67
2023-02-04T10:36:55.912Z,58.09
2023-02-04T10:42:01.116Z,58.14
2023-02-04T10:47:05.911Z,55.82
2023-02-04T10:52:19.499Z,55.99
2023-02-04T10:57:28.939Z,55.68
2023-02-04T11:02:58.498Z,55.73
2023-02-04T11:08:00.630Z,55.92
2023-02-04T11:13:05.967Z,55.05
2023-02-04T11:18:19.621Z,56.00
2023-02-04T11:23:27.209Z,56.27
2023-02-04T11:28:28.715Z,55.26
2023-02-04T11:33:41.649Z,54.71
2023-02-04T11:38:49.026Z,54.33
2023-02-04T11:43:51.963Z,54.25
2023-02-04T11:48:55.550Z,53.82
2023-02-04T11:53:56.981Z,54.47
2023-02-04T11:58:58.642Z,54.45
2023-02-04T12:04:02.457Z,53.01
2023-02-04T12:09:28.502Z,53.63
2023-02-04T12:14:34.365Z,53.35
2023-02-04T12:19:35.846Z,53.25
2023-02-04T12:24:37.355Z,53.90
2023-02-04T12:29:38.803Z,54.46
2023-02-04T12:34:40.224Z,53.85
2023-02-04T12:39:41.742Z,52.98
2023-02-04T12:44:43.200Z,52.44
2023-02-04T12:49:44.704Z,52.27
2023-02-04T12:54:46.248Z,51.20
2023-02-04T12:59:48.231Z,52.67
2023-02-04T13:04:49.734Z,51.94
2023-02-04T13:09:51.234Z,52.69
2023-02-04T13:14:52.747Z,52.58
2023-02-04T13:19:54.626Z,51.84
2023-02-04T13:24:56.134Z,52.59
2023-02-04T13:29:58.125Z,53.24
2023-02-04T13:34:59.646Z,51.72
2023-02-04T13:40:01.106Z,51.40
2023-02-04T13:45:02.690Z,51.52
2023-02-04T13:50:04.420Z,51.69
2023-02-04T13:55:06.120Z,51.14
2023-02-04T14:00:08.617Z,50.52
2023-02-04T14:05:16.237Z,51.57
2023-02-04T14:10:18.347Z,50.85
2023-02-04T14:15:19.798Z,50.52
2023-02-04T14:20:21.256Z,50.13
2023-02-04T14:25:22.924Z,50.74
2023-02-04T14:30:26.153Z,49.56
2023-02-04T14:35:27.818Z,50.78
2023-02-04T14:40:29.413Z,49.51
2023-02-04T14:45:30.863Z,49.69
2023-02-04T14:50:32.776Z,50.37
2023-02-04T14:55:34.594Z,49.86
2023-02-04T15:00:36.126Z,49.17
2023-02-04T15:05:37.861Z,50.34
2023-02-04T15:10:39.626Z,50.19
2023-02-04T15:15:41.230Z,50.39
2023-02-04T15:20:42.656Z,49.86
2023-02-04T15:25:44.232Z,49.46
2023-02-04T15:30:45.816Z,48.38
2023-02-04T15:35:47.390Z,48.92
2023-02-04T15:40:48.895Z,50.09
2023-02-04T15:45:50.466Z,51.36
2023-02-04T15:50:51.989Z,50.71
2023-02-04T15:55:53.427Z,50.63
2023-02-04T16:00:54.943Z,51.76
2023-02-04T16:05:56.469Z,53.16
2023-02-04T16:10:57.919Z,53.80
2023-02-04T16:15:59.639Z,54.30
2023-02-04T16:21:01.159Z,53.57
2023-02-04T16:26:02.628Z,53.62
2023-02-04T16:31:04.406Z,53.88
2023-02-04T16:36:10.057Z,53.54
2023-02-04T16:41:11.886Z,53.68
2023-02-04T16:46:13.360Z,53.45
2023-02-04T16:51:14.810Z,53.42
2023-02-04T16:56:16.334Z,53.61
2023-02-04T17:01:17.831Z,53.39
2023-02-04T17:06:19.342Z,53.23
2023-02-04T17:11:21.647Z,53.71
2023-02-04T17:16:23.197Z,54.98
2023-02-04T17:21:27.378Z,54.79
2023-02-04T17:26:29.993Z,54.71
2023-02-04T17:31:31.586Z,54.51
2023-02-04T17:36:33.106Z,54.80
2023-02-04T17:41:34.648Z,54.38
2023-02-04T17:46:36.661Z,54.70
2023-02-04T17:51:38.246Z,55.01
2023-02-04T17:56:39.688Z,54.82
2023-02-04T18:01:41.380Z,54.96
2023-02-04T18:06:43.370Z,55.28
2023-02-04T18:11:45.308Z,55.59
2023-02-04T18:16:46.896Z,55.23
2023-02-04T18:21:49.418Z,55.58
2023-02-04T18:26:53.059Z,55.23
2023-02-04T18:32:01.505Z,55.76
2023-02-04T18:37:29.523Z,55.82
2023-02-04T18:42:31.170Z,55.69
2023-02-04T18:47:33.786Z,55.85
2023-02-04T18:52:36.897Z,55.85
2023-02-04T18:57:39.335Z,55.88
2023-02-04T19:02:53.084Z,55.77
2023-02-04T19:08:20.630Z,56.08
2023-02-04T19:13:30.928Z,56.30
2023-02-04T19:18:41.218Z,57.39
2023-02-04T19:23:43.117Z,56.52
2023-02-04T19:28:44.563Z,55.70
2023-02-04T19:33:46.000Z,55.56
2023-02-04T19:38:47.676Z,55.34
2023-02-04T19:43:49.135Z,55.47
2023-02-04T19:48:51.355Z,55.03
2023-02-04T19:54:00.851Z,55.47
2023-02-04T19:59:26.656Z,56.35
2023-02-04T20:04:39.533Z,57.28
2023-02-04T20:09:41.354Z,57.53
2023-02-04T20:14:46.838Z,56.26
2023-02-04T20:19:49.701Z,56.45
2023-02-04T20:24:54.796Z,56.42
2023-02-04T20:30:09.330Z,56.52
2023-02-04T20:35:11.768Z,56.77
2023-02-04T20:40:20.480Z,55.91
2023-02-04T20:45:28.184Z,55.74
2023-02-04T20:50:29.778Z,55.65
2023-02-04T20:55:33.618Z,54.91
2023-02-04T21:00:35.419Z,55.06
2023-02-04T21:05:36.862Z,55.83
2023-02-04T21:10:38.367Z,55.35
2023-02-04T21:15:39.929Z,55.59
2023-02-04T21:20:41.404Z,55.34
2023-02-04T21:25:42.853Z,55.20
2023-02-04T21:30:44.461Z,55.95
2023-02-04T21:35:46.010Z,55.62
2023-02-04T21:40:47.444Z,56.12
2023-02-04T21:45:48.873Z,57.03
2023-02-04T21:50:50.497Z,56.58
2023-02-04T21:55:51.968Z,56.77
2023-02-04T22:00:53.407Z,56.30
2023-02-04T22:05:54.893Z,56.88
2023-02-04T22:10:56.327Z,55.91
2023-02-04T22:15:57.768Z,56.25
2023-02-04T22:20:59.296Z,56.48
2023-02-04T22:26:00.779Z,55.95
2023-02-04T22:31:02.407Z,56.01
2023-02-04T22:36:04.020Z,56.77
2023-02-04T22:41:05.672Z,57.16
2023-02-04T22:46:07.174Z,57.55
2023-02-04T22:51:08.620Z,58.22
2023-02-04T22:56:10.105Z,58.44
2023-02-04T23:01:11.633Z,58.53
2023-02-04T23:06:13.128Z,59.98
2023-02-04T23:11:14.983Z,59.46
2023-02-04T23:16:17.346Z,59.90
2023-02-04T23:21:19.254Z,58.88
2023-02-04T23:26:21.181Z,58.78
2023-02-04T23:31:22.704Z,57.18
2023-02-04T23:36:24.199Z,57.70
2023-02-04T23:41:25.644Z,57.35
2023-02-04T23:46:27.123Z,57.62
2023-02-04T23:51:28.700Z,58.22
2023-02-04T23:56:30.163Z,57.77
